createdAt,value
2023-03-17T00:00:26.666Z,11.63
2023-03-17T00:02:54.423Z,13.83
2023-03-17T00:05:24.318Z,10.33
2023-03-17T00:07:54.200Z,10.37
2023-03-17T00:10:23.422Z,10.23
2023-03-17T00:12:53.130Z,10.50
2023-03-17T00:15:22.766Z,9.30
2023-03-17T00:17:50.960Z,11.87
2023-03-17T00:20:23.749Z,11.80
2023-03-17T00:22:51.764Z,11.10
2023-03-17T00:25:23.595Z,10.07
2023-03-17T00:27:51.549Z,9.53
2023-03-17T00:30:19.616Z,9.23
2023-03-17T00:32:47.571Z,8.27
2023-03-17T00:35:16.652Z,9.20
2023-03-17T00:37:45.634Z,9.13
2023-03-17T00:40:16.861Z,8.67
2023-03-17T00:42:46.334Z,9.70
2023-03-17T00:45:14.563Z,9.90
2023-03-17T00:47:42.695Z,8.60
2023-03-17T00:50:12.329Z,8.97
2023-03-17T00:52:40.962Z,8.90
2023-03-17T00:55:10.588Z,9.63
2023-03-17T00:57:38.932Z,10.03
2023-03-17T01:00:18.064Z,10.93
2023-03-17T01:02:46.221Z,9.27
2023-03-17T01:05:14.200Z,10.43
2023-03-17T01:07:42.798Z,9.57
2023-03-17T01:10:14.189Z,11.73
2023-03-17T01:12:42.113Z,12.73
2023-03-17T01:15:12.973Z,10.37
2023-03-17T01:17:42.061Z,9.70
2023-03-17T01:20:12.443Z,10.67
2023-03-17T01:22:40.310Z,10.45
2023-03-17T01:25:08.479Z,10.90
2023-03-17T01:27:36.776Z,10.97
2023-03-17T01:30:05.263Z,10.67
2023-03-17T01:32:34.591Z,10.30
2023-03-17T01:35:03.397Z,9.10
2023-03-17T01:37:31.363Z,9.87
2023-03-17T01:39:59.788Z,9.53
2023-03-17T01:42:28.280Z,9.07
2023-03-17T01:45:01.150Z,10.37
2023-03-17T01:47:30.519Z,9.00
2023-03-17T01:50:00.964Z,8.27
2023-03-17T01:52:29.043Z,8.97
2023-03-17T01:54:59.662Z,8.20
2023-03-17T01:57:30.185Z,8.93
2023-03-17T02:00:00.067Z,9.37
2023-03-17T02:02:31.002Z,9.20
2023-03-17T02:05:00.459Z,8.77
2023-03-17T02:07:29.029Z,8.27
2023-03-17T02:09:57.479Z,8.90
2023-03-17T02:12:27.896Z,8.23
2023-03-17T02:14:56.018Z,7.70
2023-03-17T02:17:25.746Z,9.97
2023-03-17T02:19:53.451Z,8.00
2023-03-17T02:22:22.770Z,8.27
2023-03-17T02:24:53.257Z,7.43
2023-03-17T02:27:22.895Z,7.50
2023-03-17T02:29:50.969Z,8.07
2023-03-17T02:32:20.530Z,7.70
2023-03-17T02:34:49.069Z,9.60
2023-03-17T02:37:17.393Z,7.80
2023-03-17T02:39:46.912Z,7.23
2023-03-17T02:42:14.801Z,8.47
2023-03-17T02:44:42.601Z,8.43
2023-03-17T02:47:11.296Z,8.17
2023-03-17T02:49:40.366Z,7.93
2023-03-17T02:52:09.351Z,7.27
2023-03-17T02:54:37.268Z,7.00
2023-03-17T02:57:07.676Z,7.80
2023-03-17T02:59:35.612Z,8.53
2023-03-17T03:02:03.354Z,7.47
2023-03-17T03:04:31.018Z,7.03
2023-03-17T03:06:58.875Z,6.33
2023-03-17T03:09:26.648Z,6.50
2023-03-17T03:11:54.624Z,6.57
2023-03-17T03:14:24.419Z,8.20
2023-03-17T03:16:52.483Z,7.80
2023-03-17T03:19:20.438Z,7.53
2023-03-17T03:21:48.690Z,7.67
2023-03-17T03:24:16.706Z,6.80
2023-03-17T03:26:46.054Z,7.43
2023-03-17T03:29:13.707Z,6.60
2023-03-17T03:31:42.763Z,10.20
2023-03-17T03:34:10.487Z,8.30
2023-03-17T03:36:38.721Z,6.93
2023-03-17T03:39:06.471Z,7.00
2023-03-17T03:41:34.656Z,7.63
2023-03-17T03:44:02.577Z,8.60
2023-03-17T03:46:30.797Z,6.93
2023-03-17T03:48:59.863Z,7.27
2023-03-17T03:51:27.707Z,7.70
2023-03-17T03:53:55.497Z,7.83
2023-03-17T03:56:23.251Z,7.73
2023-03-17T03:58:51.508Z,7.70
2023-03-17T04:01:19.874Z,8.13
2023-03-17T04:03:48.160Z,7.83
2023-03-17T04:06:17.455Z,6.83
2023-03-17T04:08:45.247Z,7.27
2023-03-17T04:11:13.300Z,6.90
2023-03-17T04:13:41.282Z,6.03
2023-03-17T04:16:09.335Z,6.27
2023-03-17T04:18:37.830Z,6.27
2023-03-17T04:21:06.443Z,5.97
2023-03-17T04:23:35.682Z,5.80
2023-03-17T04:26:04.253Z,6.03
2023-03-17T04:28:32.088Z,5.90
2023-03-17T04:30:59.878Z,6.43
2023-03-17T04:33:28.034Z,6.63
2023-03-17T04:35:56.237Z,7.07
2023-03-17T04:38:24.233Z,6.73
2023-03-17T04:40:53.361Z,6.90
2023-03-17T04:43:21.695Z,5.80
2023-03-17T04:45:49.534Z,6.17
2023-03-17T04:48:17.578Z,5.67
2023-03-17T04:50:47.967Z,7.60
2023-03-17T04:53:16.004Z,6.63
2023-03-17T04:55:43.707Z,5.73
2023-03-17T04:58:21.089Z,6.30
2023-03-17T05:00:56.254Z,6.13
2023-03-17T05:03:27.648Z,6.83
2023-03-17T05:05:55.751Z,7.83
2023-03-17T05:08:28.526Z,6.57
2023-03-17T05:10:56.264Z,6.83
2023-03-17T05:13:26.480Z,8.23
2023-03-17T05:15:55.177Z,6.50
2023-03-17T05:18:24.246Z,7.80
2023-03-17T05:20:52.245Z,7.23
2023-03-17T05:23:20.775Z,8.87
2023-03-17T05:25:48.517Z,9.00
2023-03-17T05:28:16.932Z,7.77
2023-03-17T05:30:46.818Z,8.57
2023-03-17T05:33:14.926Z,6.47
2023-03-17T05:35:42.836Z,11.53
2023-03-17T05:38:12.798Z,9.17
2023-03-17T05:40:41.328Z,6.90
2023-03-17T05:43:09.478Z,7.27
2023-03-17T05:45:37.254Z,7.20
2023-03-17T05:48:06.568Z,7.37
2023-03-17T05:50:34.486Z,7.47
2023-03-17T05:53:03.363Z,7.27
2023-03-17T05:55:31.466Z,7.80
2023-03-17T05:58:00.973Z,7.83
2023-03-17T06:00:29.449Z,7.83
2023-03-17T06:02:57.526Z,8.17
2023-03-17T06:05:27.430Z,8.93
2023-03-17T06:07:57.741Z,8.00
2023-03-17T06:10:25.857Z,9.27
2023-03-17T06:12:54.059Z,10.53
2023-03-17T06:15:22.141Z,7.70
2023-03-17T06:17:50.056Z,7.70
2023-03-17T06:20:17.959Z,8.03
2023-03-17T06:23:02.822Z,7.50
2023-03-17T06:25:32.443Z,7.83
2023-03-17T06:28:02.672Z,12.77
2023-03-17T06:30:31.403Z,8.50
2023-03-17T06:33:01.699Z,9.60
2023-03-17T06:35:30.335Z,7.97
2023-03-17T06:38:01.017Z,10.17
2023-03-17T06:40:29.044Z,13.93
2023-03-17T06:42:57.239Z,8.17
2023-03-17T06:45:26.813Z,9.17
2023-03-17T06:47:54.835Z,8.70
2023-03-17T06:50:22.584Z,7.87
2023-03-17T06:52:50.512Z,8.47
2023-03-17T06:55:19.699Z,8.20
2023-03-17T06:57:50.463Z,6.10
2023-03-17T07:00:19.430Z,6.17
2023-03-17T07:02:47.564Z,5.57
2023-03-17T07:05:15.198Z,7.10
2023-03-17T07:07:42.923Z,6.57
2023-03-17T07:10:13.833Z,7.20
2023-03-17T07:12:43.070Z,6.70
2023-03-17T07:15:12.555Z,8.90
2023-03-17T07:17:40.535Z,12.40
2023-03-17T07:20:09.850Z,8.03
2023-03-17T07:22:37.633Z,8.97
2023-03-17T07:25:05.965Z,6.93
2023-03-17T07:27:34.010Z,10.57
2023-03-17T07:30:04.919Z,6.63
2023-03-17T07:32:33.198Z,8.73
2023-03-17T07:35:01.193Z,6.00
2023-03-17T07:37:28.881Z,7.20
2023-03-17T07:39:57.090Z,11.27
2023-03-17T07:42:25.068Z,6.33
2023-03-17T07:44:52.906Z,6.70
2023-03-17T07:47:24.939Z,7.30
2023-03-17T07:49:55.948Z,7.13
2023-03-17T07:52:23.695Z,7.43
2023-03-17T07:54:52.210Z,7.13
2023-03-17T07:57:20.378Z,8.50
2023-03-17T07:59:48.176Z,7.30
2023-03-17T08:02:17.290Z,8.57
2023-03-17T08:04:46.902Z,6.97
2023-03-17T08:07:15.721Z,7.87
2023-03-17T08:09:43.619Z,6.70
2023-03-17T08:12:11.876Z,8.60
2023-03-17T08:14:39.503Z,9.03
2023-03-17T08:17:07.848Z,10.40
2023-03-17T08:19:36.406Z,7.00
2023-03-17T08:22:05.690Z,8.17
2023-03-17T08:24:34.746Z,9.67
2023-03-17T08:27:02.548Z,9.40
2023-03-17T08:29:30.554Z,7.67
2023-03-17T08:32:00.715Z,6.10
2023-03-17T08:34:28.543Z,7.20
2023-03-17T08:36:56.806Z,7.20
2023-03-17T08:39:26.761Z,7.03
2023-03-17T08:41:54.799Z,6.70
2023-03-17T08:44:23.186Z,8.77
2023-03-17T08:46:51.701Z,11.57
2023-03-17T08:49:19.502Z,6.63
2023-03-17T08:51:47.604Z,9.03
2023-03-17T08:54:15.406Z,5.53
2023-03-17T08:56:44.939Z,5.53
2023-03-17T08:59:12.688Z,5.00
2023-03-17T09:01:42.116Z,7.47
2023-03-17T09:04:09.922Z,4.90
2023-03-17T09:06:39.736Z,5.90
2023-03-17T09:09:10.549Z,5.23
2023-03-17T09:11:38.350Z,2.83
2023-03-17T09:14:07.449Z,8.17
2023-03-17T09:16:36.173Z,7.67
2023-03-17T09:19:04.642Z,8.03
2023-03-17T09:21:32.836Z,5.70
2023-03-17T09:24:07.404Z,5.60
2023-03-17T09:26:36.573Z,8.17
2023-03-17T09:29:05.729Z,6.73
2023-03-17T09:31:36.444Z,6.57
2023-03-17T09:34:05.431Z,8.17
2023-03-17T09:36:34.185Z,7.90
2023-03-17T09:39:02.335Z,9.93
2023-03-17T09:41:38.960Z,7.10
2023-03-17T09:44:13.226Z,9.47
2023-03-17T09:46:49.581Z,6.27
2023-03-17T09:49:20.674Z,10.17
2023-03-17T09:51:48.951Z,9.10
2023-03-17T09:54:19.981Z,7.30
2023-03-17T09:56:50.764Z,9.37
2023-03-17T09:59:28.707Z,11.53
2023-03-17T10:01:58.603Z,10.53
2023-03-17T10:04:26.611Z,10.10
2023-03-17T10:06:59.379Z,9.63
2023-03-17T10:09:32.546Z,7.40
2023-03-17T10:12:04.769Z,6.23
2023-03-17T10:14:39.842Z,6.10
2023-03-17T10:17:13.884Z,5.47
2023-03-17T10:19:51.265Z,7.00
2023-03-17T10:22:22.489Z,4.90
2023-03-17T10:24:52.260Z,5.10
2023-03-17T10:27:20.270Z,4.57
2023-03-17T10:29:48.694Z,6.73
2023-03-17T10:32:18.125Z,6.80
2023-03-17T10:34:46.336Z,6.37
2023-03-17T10:37:16.709Z,5.50
2023-03-17T10:39:47.144Z,2.73
2023-03-17T10:42:21.333Z,5.43
2023-03-17T10:44:50.872Z,4.57
2023-03-17T10:47:31.914Z,5.03
2023-03-17T10:50:00.812Z,4.57
2023-03-17T10:52:30.212Z,4.60
2023-03-17T10:55:02.355Z,4.30
2023-03-17T10:57:31.222Z,4.50
2023-03-17T11:00:05.220Z,5.40
2023-03-17T11:02:37.118Z,4.87
2023-03-17T11:05:06.493Z,4.40
2023-03-17T11:07:36.573Z,4.17
2023-03-17T11:10:05.618Z,6.03
2023-03-17T11:12:36.893Z,4.33
2023-03-17T11:15:07.410Z,4.67
2023-03-17T11:17:45.697Z,4.27
2023-03-17T11:20:37.341Z,4.43
2023-03-17T11:23:07.713Z,5.37
2023-03-17T11:25:40.537Z,5.53
2023-03-17T11:28:16.495Z,5.77
2023-03-17T11:30:47.746Z,7.87
2023-03-17T11:33:25.165Z,7.43
2023-03-17T11:35:56.005Z,5.40
2023-03-17T11:38:26.140Z,6.30
2023-03-17T11:41:12.202Z,7.30
2023-03-17T11:43:45.513Z,9.70
2023-03-17T11:46:18.026Z,6.40
2023-03-17T11:48:51.556Z,5.97
2023-03-17T11:51:27.711Z,7.37
2023-03-17T11:54:03.786Z,4.83
2023-03-17T11:56:36.468Z,7.17
2023-03-17T11:59:06.809Z,5.03
2023-03-17T12:01:38.372Z,5.30
2023-03-17T12:04:12.430Z,7.13
2023-03-17T12:06:41.554Z,5.17
2023-03-17T12:09:18.626Z,3.20
2023-03-17T12:11:48.240Z,2.57
2023-03-17T12:14:25.191Z,5.23
2023-03-17T12:16:55.827Z,2.97
2023-03-17T12:19:28.285Z,6.63
2023-03-17T12:21:58.199Z,7.43
2023-03-17T12:24:28.974Z,4.50
2023-03-17T12:26:58.106Z,2.73
2023-03-17T12:29:29.032Z,3.00
2023-03-17T12:32:00.100Z,3.07
2023-03-17T12:34:32.329Z,2.53
2023-03-17T12:37:00.682Z,3.40
2023-03-17T12:39:30.231Z,3.20
2023-03-17T12:42:11.923Z,4.90
2023-03-17T12:44:48.494Z,3.47
2023-03-17T12:47:21.543Z,2.17
2023-03-17T12:50:07.088Z,2.27
2023-03-17T12:52:41.134Z,1.37
2023-03-17T12:55:13.112Z,1.73
2023-03-17T12:57:41.627Z,1.93
2023-03-17T13:00:17.625Z,4.37
2023-03-17T13:02:47.625Z,2.40
2023-03-17T13:05:18.888Z,1.90
2023-03-17T13:07:50.207Z,1.30
2023-03-17T13:10:37.315Z,1.37
2023-03-17T13:13:07.185Z,2.03
2023-03-17T13:15:55.167Z,2.63
2023-03-17T13:18:39.152Z,1.67
2023-03-17T13:21:13.268Z,1.47
2023-03-17T13:23:42.396Z,1.70
2023-03-17T13:26:12.622Z,1.60
2023-03-17T13:28:45.601Z,1.20
2023-03-17T13:31:16.554Z,1.30
2023-03-17T13:33:46.624Z,1.23
2023-03-17T13:36:27.564Z,1.10
2023-03-17T13:39:19.387Z,1.50
2023-03-17T13:42:11.974Z,1.30
2023-03-17T13:44:51.468Z,1.93
2023-03-17T13:47:28.494Z,1.90
2023-03-17T13:49:59.131Z,1.03
2023-03-17T13:52:32.065Z,1.20
2023-03-17T13:55:01.999Z,1.00
2023-03-17T13:57:31.001Z,1.27
2023-03-17T14:00:01.254Z,1.50
2023-03-17T14:02:32.056Z,2.33
2023-03-17T14:05:01.363Z,3.50
2023-03-17T14:07:32.633Z,1.30
2023-03-17T14:10:02.557Z,2.27
2023-03-17T14:12:34.518Z,2.50
2023-03-17T14:15:08.002Z,1.30
2023-03-17T14:17:38.052Z,0.93
2023-03-17T14:20:08.733Z,1.50
2023-03-17T14:22:46.018Z,3.00
2023-03-17T14:25:17.330Z,1.80
2023-03-17T14:27:46.678Z,1.60
2023-03-17T14:30:18.796Z,1.70
2023-03-17T14:32:51.743Z,4.60
2023-03-17T14:35:19.529Z,2.07
2023-03-17T14:37:49.130Z,1.40
2023-03-17T14:40:22.388Z,1.47
2023-03-17T14:42:50.385Z,2.80
2023-03-17T14:45:20.913Z,3.60
2023-03-17T14:47:50.776Z,2.33
2023-03-17T14:50:21.748Z,2.13
2023-03-17T14:52:51.739Z,2.43
2023-03-17T14:55:20.912Z,2.13
2023-03-17T14:57:51.185Z,2.23
2023-03-17T15:00:32.099Z,1.40
2023-03-17T15:03:02.058Z,1.80
2023-03-17T15:05:31.598Z,3.67
2023-03-17T15:08:05.034Z,2.83
2023-03-17T15:10:42.676Z,1.90
2023-03-17T15:13:12.954Z,2.20
2023-03-17T15:15:41.639Z,2.80
2023-03-17T15:18:12.581Z,2.90
2023-03-17T15:20:40.608Z,3.23
2023-03-17T15:23:17.346Z,2.20
2023-03-17T15:25:46.702Z,2.70
2023-03-17T15:28:15.656Z,1.80
2023-03-17T15:30:47.618Z,2.67
2023-03-17T15:33:21.475Z,4.37
2023-03-17T15:35:49.751Z,1.90
2023-03-17T15:38:19.199Z,2.27
2023-03-17T15:40:46.987Z,2.10
2023-03-17T15:43:15.920Z,2.00
2023-03-17T15:45:45.314Z,2.77
2023-03-17T15:48:17.418Z,1.90
2023-03-17T15:50:48.378Z,2.23
2023-03-17T15:53:16.606Z,2.20
2023-03-17T15:55:46.244Z,2.27
2023-03-17T15:58:14.151Z,1.40
2023-03-17T16:00:42.363Z,4.47
2023-03-17T16:03:14.956Z,2.77
2023-03-17T16:05:43.746Z,3.20
2023-03-17T16:08:14.146Z,5.20
2023-03-17T16:10:42.199Z,3.00
2023-03-17T16:13:12.109Z,4.10
2023-03-17T16:15:41.344Z,2.63
2023-03-17T16:18:13.747Z,2.37
2023-03-17T16:20:42.484Z,3.40
2023-03-17T16:23:13.741Z,2.33
2023-03-17T16:25:41.692Z,3.03
2023-03-17T16:28:15.123Z,5.97
2023-03-17T16:30:43.063Z,2.60
2023-03-17T16:33:16.617Z,3.00
2023-03-17T16:35:44.928Z,2.93
2023-03-17T16:38:15.030Z,3.07
2023-03-17T16:40:43.523Z,3.33
2023-03-17T16:43:25.284Z,3.20
2023-03-17T16:45:54.080Z,2.93
2023-03-17T16:48:21.886Z,14.27
2023-03-17T16:50:50.892Z,10.20
2023-03-17T16:53:18.764Z,6.87
2023-03-17T16:55:46.945Z,8.33
2023-03-17T16:58:19.270Z,5.63
2023-03-17T17:00:47.849Z,4.90
2023-03-17T17:03:16.103Z,3.47
2023-03-17T17:05:45.016Z,3.30
2023-03-17T17:08:14.661Z,6.13
2023-03-17T17:10:42.457Z,3.10
2023-03-17T17:13:17.807Z,3.40
2023-03-17T17:15:49.589Z,3.13
2023-03-17T17:18:18.472Z,2.83
2023-03-17T17:20:47.025Z,4.47
2023-03-17T17:23:16.254Z,4.47
2023-03-17T17:25:44.666Z,6.10
2023-03-17T17:28:13.972Z,6.03
2023-03-17T17:30:45.318Z,4.50
2023-03-17T17:33:14.875Z,4.73
2023-03-17T17:35:43.541Z,4.63
2023-03-17T17:38:17.362Z,6.67
2023-03-17T17:40:45.170Z,4.63
2023-03-17T17:43:13.002Z,5.77
2023-03-17T17:45:41.497Z,5.17
2023-03-17T17:48:10.982Z,4.77
2023-03-17T17:50:40.336Z,9.07
2023-03-17T17:53:11.787Z,13.53
2023-03-17T17:55:39.968Z,26.07
2023-03-17T17:58:07.743Z,40.43
2023-03-17T18:00:36.384Z,63.23
2023-03-17T18:03:04.646Z,56.27
2023-03-17T18:05:32.967Z,55.97
2023-03-17T18:08:02.597Z,61.13
2023-03-17T18:10:31.268Z,57.87
2023-03-17T18:12:59.464Z,50.93
2023-03-17T18:15:28.517Z,56.60
2023-03-17T18:17:56.741Z,43.23
2023-03-17T18:20:25.073Z,44.13
2023-03-17T18:22:53.231Z,39.07
2023-03-17T18:25:22.395Z,39.67
2023-03-17T18:27:50.197Z,27.57
2023-03-17T18:30:22.730Z,24.77
2023-03-17T18:32:52.263Z,24.97
2023-03-17T18:35:21.648Z,17.30
2023-03-17T18:37:49.804Z,21.67
2023-03-17T18:40:19.171Z,13.60
2023-03-17T18:42:48.566Z,12.33
2023-03-17T18:45:17.245Z,15.07
2023-03-17T18:47:45.435Z,13.43
2023-03-17T18:50:14.667Z,16.43
2023-03-17T18:52:43.859Z,20.27
2023-03-17T18:55:13.269Z,12.13
2023-03-17T18:57:44.180Z,13.20
2023-03-17T19:00:16.465Z,13.87
2023-03-17T19:02:44.293Z,8.07
2023-03-17T19:05:13.024Z,8.90
2023-03-17T19:07:41.291Z,6.53
2023-03-17T19:10:09.805Z,6.63
2023-03-17T19:12:38.040Z,8.03
2023-03-17T19:15:07.570Z,10.17
2023-03-17T19:17:37.110Z,8.63
2023-03-17T19:20:06.062Z,15.03
2023-03-17T19:22:35.638Z,14.63
2023-03-17T19:25:04.505Z,15.63
2023-03-17T19:27:32.252Z,15.07
2023-03-17T19:30:00.173Z,13.03
2023-03-17T19:32:28.171Z,10.10
2023-03-17T19:34:58.153Z,16.20
2023-03-17T19:37:26.288Z,10.07
2023-03-17T19:39:54.023Z,15.67
2023-03-17T19:42:22.214Z,14.23
2023-03-17T19:44:51.260Z,10.37
2023-03-17T19:47:19.318Z,7.43
2023-03-17T19:49:47.120Z,10.80
2023-03-17T19:52:17.089Z,13.60
2023-03-17T19:54:46.194Z,14.23
2023-03-17T19:57:14.945Z,11.87
2023-03-17T19:59:42.760Z,12.90
2023-03-17T20:02:13.431Z,11.23
2023-03-17T20:04:41.385Z,13.57
2023-03-17T20:07:09.381Z,13.27
2023-03-17T20:09:39.543Z,14.60
2023-03-17T20:12:07.385Z,14.27
2023-03-17T20:14:35.422Z,27.03
2023-03-17T20:17:03.122Z,17.90
2023-03-17T20:19:31.753Z,15.83
2023-03-17T20:21:59.689Z,16.90
2023-03-17T20:24:29.286Z,20.90
2023-03-17T20:27:00.819Z,18.90
2023-03-17T20:29:28.464Z,21.47
2023-03-17T20:31:56.386Z,29.37
2023-03-17T20:34:24.155Z,28.27
2023-03-17T20:36:52.042Z,27.27
2023-03-17T20:39:20.793Z,30.73
2023-03-17T20:41:49.448Z,38.50
2023-03-17T20:44:18.648Z,42.80
2023-03-17T20:46:47.659Z,42.40
2023-03-17T20:49:17.117Z,44.13
2023-03-17T20:51:46.422Z,44.60
2023-03-17T20:54:14.561Z,39.43
2023-03-17T20:56:42.907Z,38.73
2023-03-17T20:59:13.708Z,37.40
2023-03-17T21:01:43.782Z,37.87
2023-03-17T21:04:12.665Z,36.03
2023-03-17T21:06:41.583Z,37.03
2023-03-17T21:09:10.253Z,35.63
2023-03-17T21:11:38.942Z,39.47
2023-03-17T21:14:09.131Z,54.53
2023-03-17T21:16:37.479Z,55.10
2023-03-17T21:19:15.287Z,42.90
2023-03-17T21:21:43.416Z,65.30
2023-03-17T21:24:19.884Z,62.77
2023-03-17T21:26:47.581Z,65.47
2023-03-17T21:29:16.729Z,68.33
2023-03-17T21:31:44.559Z,69.90
2023-03-17T21:34:12.530Z,58.10
2023-03-17T21:36:41.750Z,50.33
2023-03-17T21:39:10.412Z,41.50
2023-03-17T21:41:39.212Z,49.67
2023-03-17T21:44:08.106Z,35.20
2023-03-17T21:46:36.061Z,41.50
2023-03-17T21:49:03.977Z,47.10
2023-03-17T21:51:33.060Z,44.60
2023-03-17T21:54:02.371Z,39.90
2023-03-17T21:56:30.181Z,37.70
2023-03-17T21:58:58.223Z,37.17
2023-03-17T22:01:26.459Z,36.37
2023-03-17T22:03:54.789Z,40.47
2023-03-17T22:06:23.337Z,43.30
2023-03-17T22:08:51.259Z,43.07
2023-03-17T22:11:20.759Z,46.57
2023-03-17T22:13:49.735Z,44.17
2023-03-17T22:16:18.419Z,43.93
2023-03-17T22:18:47.535Z,48.50
2023-03-17T22:21:15.596Z,49.50
2023-03-17T22:23:43.531Z,47.20
2023-03-17T22:26:12.727Z,45.30
2023-03-17T22:28:42.112Z,41.30
2023-03-17T22:31:15.860Z,37.30
2023-03-17T22:33:44.384Z,37.33
2023-03-17T22:36:12.754Z,35.43
2023-03-17T22:38:41.371Z,27.57
2023-03-17T22:41:10.656Z,20.63
2023-03-17T22:43:40.091Z,14.97
2023-03-17T22:46:09.925Z,17.10
2023-03-17T22:48:38.348Z,11.83
2023-03-17T22:51:06.920Z,12.13
2023-03-17T22:53:35.354Z,14.67
2023-03-17T22:56:04.676Z,11.67
2023-03-17T22:58:33.066Z,14.60
2023-03-17T23:01:01.222Z,13.63
2023-03-17T23:03:32.080Z,16.47
2023-03-17T23:06:00.998Z,14.57
2023-03-17T23:08:29.401Z,15.17
2023-03-17T23:10:59.214Z,15.80
2023-03-17T23:13:27.746Z,16.30
2023-03-17T23:15:56.622Z,17.70
2023-03-17T23:18:24.866Z,11.93
2023-03-17T23:20:54.754Z,14.30
2023-03-17T23:23:22.409Z,16.43
2023-03-17T23:25:50.771Z,12.00
2023-03-17T23:28:18.599Z,13.33
2023-03-17T23:30:47.877Z,13.00
2023-03-17T23:33:17.606Z,14.73
2023-03-17T23:35:46.315Z,14.20
2023-03-17T23:38:15.804Z,19.50
2023-03-17T23:40:44.783Z,23.93
2023-03-17T23:43:12.828Z,22.70
2023-03-17T23:45:42.411Z,25.73
2023-03-17T23:48:10.443Z,25.70
2023-03-17T23:50:38.630Z,25.00
2023-03-17T23:53:06.331Z,27.70
2023-03-17T23:55:35.893Z,22.87
2023-03-17T23:58:03.584Z,24.43
